The Meadows, Iowa
Current Conditions -  °F | °C
As of 4:15 PM on Wednesday 28 Jan 2015 (Local Time) from KBNW Reporting Station
Clear Clear  
Wind Chill: 42°   Ceiling: Unl
Heat Index: 46°   Visibility: 10mi
Dew Point: 37°   Wind: 9mph
Humidity: 71%   Direction: 150°SSE
Pressure: 29.68"   Gusts: 15mph
Location:  41.8164°N, 93.8864°W
Report Text: KBNW 282215Z AUTO 15008G13KT 10SM CLR 08/03 A2968 RMK AO2
Loading
Personal Weather Stations






























Interactive Weather Map New forecast layout! Learn more

10-Day Weather Forecast

Advertisements
Track Severe Weather on mobile